Time;durP1;ratioP1;P1;durP2;ratioP2;P2;SDS_P1;SDS_P2;PMS_P1;PMS_P2;Temp;Humidity;BMP_temperature;BMP_pressure;BME280_temperature;BME280_humidity;BME280_pressure;Samples;Min_cycle;Max_cycle;Signal;HPM_P1;HPM_P2
2019/07/04 00:02:28;;;;;;;9.2;4.8;;;;;;;19.32;72.05273;942.0931;;;;
2019/07/04 00:04:57;;;;;;;8;4.6;;;;;;;19.23;72.45801;942.1591;;;;
2019/07/04 00:07:25;;;;;;;8.1;4.7;;;;;;;19.19;72.12305;942.1088;;;;
2019/07/04 00:10:00;;;;;;;10;4.9;;;;;;;19.14;72.89648;942.0717;;;;
2019/07/04 00:12:21;;;;;;;7.9;4.2;;;;;;;19.22;71.81445;942.1051;;;;
2019/07/04 00:14:54;;;;;;;11;4.6;;;;;;;19.27;71.66016;942.1246;;;;
2019/07/04 00:17:17;;;;;;;7.8;4.2;;;;;;;19.18;71.07422;942.1316;;;;
2019/07/04 00:19:51;;;;;;;6.6;4.3;;;;;;;19.31;71.36328;942.0762;;;;
2019/07/04 00:22:24;;;;;;;7.3;4.4;;;;;;;19.23;71.37402;941.9961;;;;
2019/07/04 00:24:41;;;;;;;5.7;4.2;;;;;;;19.03;71.59668;941.9478;;;;
2019/07/04 00:27:15;;;;;;;8;4.5;;;;;;;19.21;71.27637;941.9858;;;;
2019/07/04 00:29:51;;;;;;;8.2;4.4;;;;;;;19.29;71.52344;941.9975;;;;
2019/07/04 00:32:15;;;;;;;5.8;4.5;;;;;;;19.24;70.81641;942.0121;;;;
2019/07/04 00:34:36;;;;;;;6.2;4.3;;;;;;;19.3;71.19727;941.9528;;;;
2019/07/04 00:37:02;;;;;;;5.8;4.6;;;;;;;19.2;71.1709;941.9261;;;;
2019/07/04 00:39:32;;;;;;;6.3;4.5;;;;;;;19.15;70.75684;941.9188;;;;
2019/07/04 00:41:56;;;;;;;7.8;4.5;;;;;;;19.08;71.37402;941.8547;;;;
2019/07/04 00:44:28;;;;;;;8.2;4.5;;;;;;;18.96;71.48145;941.9559;;;;
2019/07/04 00:46:49;;;;;;;8.1;4.5;;;;;;;18.98;71.77539;941.9272;;;;
2019/07/04 00:49:15;;;;;;;7.3;4.7;;;;;;;19.01;71.95605;941.9533;;;;
2019/07/04 00:51:47;;;;;;;7.1;5.3;;;;;;;18.87;72.68848;942.0178;;;;
2019/07/04 00:54:07;;;;;;;10;5.4;;;;;;;18.63;72.16113;942.0036;;;;
2019/07/04 00:56:31;;;;;;;8.9;5.5;;;;;;;18.39;73.87695;942.0104;;;;
2019/07/04 00:59:03;;;;;;;8.2;5.6;;;;;;;18.21;74.82227;942.0231;;;;
2019/07/04 01:01:38;;;;;;;8.3;5.9;;;;;;;18.24;74.74707;942.0109;;;;
2019/07/04 01:03:58;;;;;;;8.6;5.6;;;;;;;18.1;75.44336;941.9892;;;;
2019/07/04 01:06:30;;;;;;;10;5.5;;;;;;;18.05;75.72559;941.9947;;;;
2019/07/04 01:08:54;;;;;;;8.4;5.9;;;;;;;17.87;75.90234;942.025;;;;
2019/07/04 01:11:25;;;;;;;11.2;6.2;;;;;;;17.63;76.83594;942.0652;;;;
2019/07/04 01:13:49;;;;;;;9;6.2;;;;;;;17.57;76.69727;942.0502;;;;
2019/07/04 01:16:14;;;;;;;8.5;5.9;;;;;;;17.32;77.94043;942.1356;;;;
2019/07/04 01:18:47;;;;;;;8.8;5.6;;;;;;;17.3;78.27344;942.1552;;;;
2019/07/04 01:21:19;;;;;;;7.2;5.7;;;;;;;17.38;77.88379;942.188;;;;
2019/07/04 01:23:43;;;;;;;13.6;5.9;;;;;;;17.55;76.90137;942.1738;;;;
2019/07/04 01:26:15;;;;;;;9.4;5.7;;;;;;;17.57;77.15039;942.1968;;;;
2019/07/04 01:28:37;;;;;;;8.4;5.7;;;;;;;17.55;76.80859;942.1738;;;;
2019/07/04 01:31:03;;;;;;;8.2;5.7;;;;;;;17.44;76.81445;942.0911;;;;
2019/07/04 01:33:33;;;;;;;9.4;5.8;;;;;;;17.42;76.71875;942.1711;;;;
2019/07/04 01:36:03;;;;;;;9;6.5;;;;;;;17.21;78.07227;942.204;;;;
2019/07/04 01:38:29;;;;;;;8.1;6.2;;;;;;;17.25;77.61621;942.2466;;;;
2019/07/04 01:40:57;;;;;;;7.2;5.5;;;;;;;17.33;77.00488;942.2586;;;;
2019/07/04 01:43:25;;;;;;;9.2;5.9;;;;;;;17.36;76.8125;942.2679;;;;
2019/07/04 01:45:47;;;;;;;9.2;6.1;;;;;;;17.46;76.63281;942.2656;;;;
2019/07/04 01:48:18;;;;;;;6.7;5.7;;;;;;;17.42;77.14844;942.2781;;;;
2019/07/04 01:50:53;;;;;;;8;5.6;;;;;;;17.48;77.04199;942.3532;;;;
2019/07/04 01:53:38;;;;;;;10.3;5.7;;;;;;;17.53;76.62207;942.3003;;;;
2019/07/04 01:56:04;;;;;;;9.4;6.3;;;;;;;17.44;76.7334;942.2803;;;;
2019/07/04 01:58:31;;;;;;;7;5.8;;;;;;;17.35;76.8457;942.2431;;;;
2019/07/04 02:00:55;;;;;;;10.1;6.2;;;;;;;17.26;77.07324;942.2883;;;;
2019/07/04 02:03:25;;;;;;;10.6;6.8;;;;;;;17.24;76.7334;942.3247;;;;
2019/07/04 02:05:54;;;;;;;10.3;7.1;;;;;;;17.09;77.00781;942.3074;;;;
2019/07/04 02:08:20;;;;;;;9;7.3;;;;;;;16.95;78.39648;942.2721;;;;
2019/07/04 02:10:50;;;;;;;9.8;6.2;;;;;;;16.92;78.15039;942.2964;;;;
2019/07/04 02:13:23;;;;;;;7;5.8;;;;;;;16.98;77.73047;942.2509;;;;
2019/07/04 02:15:48;;;;;;;7.4;6.3;;;;;;;17.02;77.53027;942.2548;;;;
2019/07/04 02:18:14;;;;;;;8.4;5.8;;;;;;;17.15;77.03125;942.2914;;;;
2019/07/04 02:20:41;;;;;;;7.7;5.6;;;;;;;17.17;77.0918;942.3026;;;;
2019/07/04 02:23:07;;;;;;;7.6;6;;;;;;;17.03;77.51855;942.3312;;;;
2019/07/04 02:25:37;;;;;;;7.7;5.7;;;;;;;17.03;77.35645;942.3826;;;;
2019/07/04 02:28:10;;;;;;;6.4;5.7;;;;;;;16.99;77.5127;942.3401;;;;
2019/07/04 02:30:37;;;;;;;9;6.3;;;;;;;16.77;77.625;942.3859;;;;
2019/07/04 02:33:03;;;;;;;6.6;5.9;;;;;;;16.56;78.00293;942.3965;;;;
2019/07/04 02:35:30;;;;;;;9.1;5.7;;;;;;;16.46;78.06836;942.4077;;;;
2019/07/04 02:38:02;;;;;;;10.1;6.3;;;;;;;16.33;78.28711;942.413;;;;
2019/07/04 02:40:26;;;;;;;10.9;6.5;;;;;;;16.19;78.72363;942.4456;;;;
2019/07/04 02:42:59;;;;;;;8.7;7.1;;;;;;;16.12;78.80273;942.4324;;;;
2019/07/04 02:45:31;;;;;;;9;6.5;;;;;;;16.18;78.98926;942.5067;;;;
2019/07/04 02:47:57;;;;;;;8.5;6.9;;;;;;;16.14;79.17773;942.3953;;;;
2019/07/04 02:50:23;;;;;;;8.7;6.7;;;;;;;16.07;79.35059;942.3731;;;;
2019/07/04 02:52:50;;;;;;;9.6;6.6;;;;;;;15.88;80.06738;942.3938;;;;
2019/07/04 02:55:13;;;;;;;8.8;7.2;;;;;;;15.81;80.08887;942.4139;;;;
2019/07/04 02:57:43;;;;;;;9.4;7.3;;;;;;;15.84;80.19922;942.4238;;;;
2019/07/04 03:00:11;;;;;;;10.5;7.6;;;;;;;15.84;80.32617;942.3851;;;;
2019/07/04 03:02:35;;;;;;;9.5;7.3;;;;;;;15.77;80.9043;942.3538;;;;
2019/07/04 03:05:04;;;;;;;9.9;7.4;;;;;;;15.78;81.12402;942.3571;;;;
2019/07/04 03:07:28;;;;;;;10.7;7.7;;;;;;;15.78;81.28516;942.3699;;;;
2019/07/04 03:09:58;;;;;;;9.4;6.8;;;;;;;15.98;80.0752;942.3869;;;;
2019/07/04 03:12:24;;;;;;;8.5;7;;;;;;;16.09;80.42871;942.3497;;;;
2019/07/04 03:14:50;;;;;;;9.8;7.2;;;;;;;16.17;80.29199;942.367;;;;
2019/07/04 03:17:21;;;;;;;7.7;6.7;;;;;;;16.12;80.01758;942.3552;;;;
2019/07/04 03:19:45;;;;;;;8.8;7.1;;;;;;;16.1;79.93359;942.4003;;;;
2019/07/04 03:22:16;;;;;;;13;7.6;;;;;;;16;80.5166;942.394;;;;
2019/07/04 03:24:44;;;;;;;8.5;7.2;;;;;;;16.04;80.62695;942.4367;;;;
2019/07/04 03:27:34;;;;;;;7.4;6.6;;;;;;;16.04;80.84668;942.4239;;;;
2019/07/04 03:30:08;;;;;;;9.5;6;;;;;;;16.14;80.18457;942.3872;;;;
2019/07/04 03:32:40;;;;;;;6.9;5.9;;;;;;;16.25;79.60254;942.3965;;;;
2019/07/04 03:35:10;;;;;;;7.1;5.9;;;;;;;16.26;79.66406;942.4037;;;;
2019/07/04 03:37:39;;;;;;;8.4;5.8;;;;;;;16.36;78.61719;942.4224;;;;
2019/07/04 03:40:04;;;;;;;8.1;6;;;;;;;16.39;78.8418;942.5009;;;;
2019/07/04 03:45:40;;;;;;;9.9;6;;;;;;;16.36;78.90527;942.4788;;;;
2019/07/04 03:48:06;;;;;;;7.9;6.4;;;;;;;16.46;78.77246;942.5539;;;;
2019/07/04 03:50:35;;;;;;;7.4;6.7;;;;;;;16.32;79.45215;942.5392;;;;
2019/07/04 03:53:02;;;;;;;9.6;7.6;;;;;;;16.17;79.65723;942.5164;;;;
2019/07/04 03:55:22;;;;;;;8.8;7.6;;;;;;;16.17;79.49512;942.5164;;;;
2019/07/04 03:57:46;;;;;;;9.3;7.4;;;;;;;16.17;79.88867;942.4867;;;;
2019/07/04 04:02:50;;;;;;;9.6;6.6;;;;;;;16.46;78.49414;942.5925;;;;
2019/07/04 04:05:21;;;;;;;9.6;6.2;;;;;;;16.43;78.84863;942.6337;;;;
2019/07/04 04:07:49;;;;;;;9.2;6.4;;;;;;;16.38;79.07227;942.579;;;;
2019/07/04 04:10:20;;;;;;;10;6.7;;;;;;;16.44;79.2666;942.5814;;;;
2019/07/04 04:12:44;;;;;;;10.3;6.3;;;;;;;16.56;78.58203;942.534;;;;
2019/07/04 04:15:17;;;;;;;7.4;5.9;;;;;;;16.55;78.2002;942.5814;;;;
2019/07/04 04:17:40;;;;;;;12.8;6.6;;;;;;;16.39;78.80762;942.5822;;;;
2019/07/04 04:20:03;;;;;;;8.8;5.7;;;;;;;16.35;78.91309;942.5358;;;;
2019/07/04 04:22:28;;;;;;;9.7;6.2;;;;;;;16.51;78.95605;942.5134;;;;
2019/07/04 04:24:59;;;;;;;9.6;5.9;;;;;;;16.45;78.59668;942.5242;;;;
2019/07/04 04:27:27;;;;;;;8.7;6.1;;;;;;;16.39;79.01367;942.5098;;;;
2019/07/04 04:29:52;;;;;;;8.4;6;;;;;;;16.56;79.09277;942.5421;;;;
2019/07/04 04:32:15;;;;;;;8.8;5.9;;;;;;;16.71;78.52832;942.4788;;;;
2019/07/04 04:34:46;;;;;;;9.7;6.3;;;;;;;16.84;77.67188;942.4814;;;;
2019/07/04 04:37:10;;;;;;;9.8;6.1;;;;;;;16.91;77.38086;942.517;;;;
2019/07/04 04:39:37;;;;;;;7.9;5.9;;;;;;;16.92;77.55762;942.5073;;;;
2019/07/04 04:42:07;;;;;;;9.2;6;;;;;;;16.89;77.83105;942.4891;;;;
2019/07/04 04:47:46;;;;;;;8.8;6;;;;;;;17.06;76.92285;942.5892;;;;
2019/07/04 04:50:17;;;;;;;11.5;5.5;;;;;;;17.08;76.09082;942.5666;;;;
2019/07/04 04:52:37;;;;;;;8.1;5.5;;;;;;;17.08;76.0332;942.4885;;;;
2019/07/04 04:55:03;;;;;;;9.9;5.6;;;;;;;16.94;76.5293;942.4789;;;;
2019/07/04 04:57:36;;;;;;;6.4;5.2;;;;;;;17.17;76.04883;942.5513;;;;
2019/07/04 05:00:16;;;;;;;9.5;5.4;;;;;;;17.05;75.94727;942.5008;;;;
2019/07/04 05:03:02;;;;;;;7.8;5.1;;;;;;;17.1;76.18652;942.4739;;;;
2019/07/04 05:05:36;;;;;;;8.9;5.1;;;;;;;17.1;75.99023;942.4739;;;;
2019/07/04 05:08:07;;;;;;;6.9;4.7;;;;;;;17.47;76.19434;942.4869;;;;
2019/07/04 05:10:41;;;;;;;7.5;4.7;;;;;;;17.97;73.34082;942.4089;;;;
2019/07/04 05:13:05;;;;;;;9;4.9;;;;;;;18.12;71.96094;942.4944;;;;
2019/07/04 05:15:57;;;;;;;9.6;4.9;;;;;;;18.13;73.41406;942.4934;;;;
2019/07/04 05:18:17;;;;;;;5.8;4.7;;;;;;;18.54;71.34277;942.5262;;;;
2019/07/04 05:20:42;;;;;;;8.1;5;;;;;;;18.47;72.40039;942.6039;;;;
2019/07/04 05:23:10;;;;;;;8.7;4.9;;;;;;;18.65;72.41992;942.5567;;;;
2019/07/04 05:25:43;;;;;;;7.6;4.4;;;;;;;19.08;70.18555;942.5433;;;;
2019/07/04 05:28:09;;;;;;;6.1;3.8;;;;;;;20.12;66.66309;942.5363;;;;
2019/07/04 05:30:44;;;;;;;6.2;3.5;;;;;;;21.05;63.27148;942.557;;;;
2019/07/04 05:33:17;;;;;;;5.7;3.4;;;;;;;21.04;62.77734;942.5591;;;;
2019/07/04 05:36:00;;;;;;;6.1;3.5;;;;;;;20.8;64.89551;942.5543;;;;
2019/07/04 05:38:27;;;;;;;5.6;3.2;;;;;;;21.22;64.46582;942.6083;;;;
2019/07/04 05:40:58;;;;;;;8.5;3.5;;;;;;;21.24;64.39844;942.7012;;;;
2019/07/04 05:43:29;;;;;;;5.6;3.3;;;;;;;21.84;62.03613;942.6445;;;;
2019/07/04 05:45:59;;;;;;;6.8;3.6;;;;;;;21.64;63.28516;942.6317;;;;
2019/07/04 05:48:25;;;;;;;5.9;3.6;;;;;;;21.87;61.59473;942.6794;;;;
2019/07/04 05:50:59;;;;;;;6.1;3.4;;;;;;;21.56;61.37695;942.6505;;;;
2019/07/04 05:53:29;;;;;;;6.4;3.8;;;;;;;20.99;63.82422;942.6903;;;;
2019/07/04 05:56:08;;;;;;;6.9;4;;;;;;;20.56;66.30762;942.7886;;;;
2019/07/04 05:58:26;;;;;;;10.2;4.7;;;;;;;20.1;68.43262;942.8328;;;;
2019/07/04 06:00:47;;;;;;;9.2;4.3;;;;;;;20.11;68.36621;942.7662;;;;
2019/07/04 06:03:12;;;;;;;9.3;4.6;;;;;;;20.16;69.21289;942.7953;;;;
2019/07/04 06:05:40;;;;;;;8.2;4.6;;;;;;;20.13;68.78906;942.7513;;;;
2019/07/04 06:11:56;;;;;;;13.2;4.9;;;;;;;20.18;68.99609;942.7745;;;;
2019/07/04 06:14:19;;;;;;;7.6;4.2;;;;;;;21.23;64.01074;942.8365;;;;
2019/07/04 06:16:48;;;;;;;11.5;4.5;;;;;;;21.19;65.37305;942.8502;;;;
2019/07/04 06:19:18;;;;;;;9.7;4.8;;;;;;;21.25;64.06055;942.8947;;;;
2019/07/04 06:21:53;;;;;;;7.5;4.7;;;;;;;21.06;65.20117;942.9189;;;;
2019/07/04 06:24:13;;;;;;;6.6;4.8;;;;;;;20.86;67.03125;942.8715;;;;
2019/07/04 06:26:38;;;;;;;10.6;4.5;;;;;;;20.73;66.31055;942.9437;;;;
2019/07/04 06:29:02;;;;;;;5.9;4.1;;;;;;;20.78;68.01367;942.9239;;;;
2019/07/04 06:31:28;;;;;;;11.7;4.2;;;;;;;21.31;63.44824;942.8568;;;;
2019/07/04 06:33:52;;;;;;;7.1;4.1;;;;;;;21.41;63.41504;942.8738;;;;
2019/07/04 06:36:20;;;;;;;7;4.1;;;;;;;21.79;59.73438;942.8279;;;;
2019/07/04 06:38:47;;;;;;;8.1;4.2;;;;;;;21.71;61.59668;942.861;;;;
2019/07/04 06:41:18;;;;;;;6.5;4;;;;;;;22.1;58.87305;942.9139;;;;
2019/07/04 06:43:58;;;;;;;6.6;3.6;;;;;;;22.49;59.38184;942.7961;;;;
2019/07/04 06:46:11;;;;;;;8.4;3.7;;;;;;;23.53;56.98047;942.7327;;;;
2019/07/04 06:48:37;;;;;;;8.2;3.2;;;;;;;25.21;50.1709;942.7375;;;;
2019/07/04 06:51:02;;;;;;;6.2;3.2;;;;;;;25.03;51.21289;942.7905;;;;
2019/07/04 06:53:37;;;;;;;4.5;2.9;;;;;;;26.96;45.23633;942.7218;;;;
2019/07/04 06:55:55;;;;;;;6.9;2.9;;;;;;;27.48;44.17383;942.7067;;;;
2019/07/04 06:58:23;;;;;;;5.8;2.9;;;;;;;29.44;40.9209;942.6631;;;;
2019/07/04 07:00:48;;;;;;;9.2;3;;;;;;;29.23;39.15137;942.6964;;;;
2019/07/04 07:03:15;;;;;;;33.8;4.2;;;;;;;29.38;40.49902;942.707;;;;
2019/07/04 07:05:38;;;;;;;7.3;2.9;;;;;;;29.49;36.66016;942.6717;;;;
2019/07/04 07:08:09;;;;;;;6.1;2.8;;;;;;;29.89;37.74219;942.6552;;;;
2019/07/04 07:10:37;;;;;;;7.5;2.4;;;;;;;30.15;35.43555;942.682;;;;
2019/07/04 07:13:05;;;;;;;5.6;2.6;;;;;;;29.91;38.04199;942.6605;;;;
2019/07/04 07:15:32;;;;;;;6.5;2.7;;;;;;;29.8;39.53516;942.7003;;;;
2019/07/04 07:18:07;;;;;;;6.2;2.7;;;;;;;30.36;36.14453;942.6701;;;;
2019/07/04 07:20:33;;;;;;;4.4;2.6;;;;;;;30.45;38.14746;942.5879;;;;
2019/07/04 07:23:00;;;;;;;9.4;2.9;;;;;;;30.33;38.80566;942.7054;;;;
2019/07/04 07:25:26;;;;;;;5.3;2.2;;;;;;;30.74;38.70898;942.5972;;;;
2019/07/04 07:27:54;;;;;;;6.6;2.9;;;;;;;30.9;36.67871;942.6847;;;;
2019/07/04 07:30:19;;;;;;;7.1;2.6;;;;;;;32.04;33.04395;942.6772;;;;
2019/07/04 07:32:50;;;;;;;8.1;3.1;;;;;;;30.57;37.61914;942.7079;;;;
2019/07/04 07:35:16;;;;;;;10.9;3;;;;;;;31.09;35.50977;942.6259;;;;
2019/07/04 07:37:47;;;;;;;9.7;2.5;;;;;;;30.78;36.47852;942.5631;;;;
2019/07/04 07:40:19;;;;;;;5.1;2.5;;;;;;;30.87;37.35742;942.5754;;;;
2019/07/04 07:42:50;;;;;;;6.5;2.3;;;;;;;31.49;36.88184;942.54;;;;
2019/07/04 07:45:18;;;;;;;5.7;2.5;;;;;;;30.38;39.39453;942.473;;;;
2019/07/04 07:47:50;;;;;;;5.6;2.5;;;;;;;32.33;33.80762;942.4474;;;;
2019/07/04 07:50:16;;;;;;;9.3;2.8;;;;;;;31.73;34.44629;942.4639;;;;
2019/07/04 07:52:41;;;;;;;5.6;2.6;;;;;;;32.3;34.37012;942.4344;;;;
2019/07/04 07:55:07;;;;;;;5.6;2.5;;;;;;;32;34.28711;942.4952;;;;
2019/07/04 07:57:31;;;;;;;4.3;2.3;;;;;;;33.08;32.18164;942.5173;;;;
2019/07/04 08:00:02;;;;;;;6.4;2.6;;;;;;;33.52;31.2627;942.5266;;;;
2019/07/04 08:02:26;;;;;;;6.9;2.3;;;;;;;32.91;32.56641;942.4547;;;;
2019/07/04 08:04:59;;;;;;;5.5;2.3;;;;;;;32.83;32.24902;942.4061;;;;
2019/07/04 08:07:25;;;;;;;7.2;2.2;;;;;;;33.01;32.96973;942.4369;;;;
2019/07/04 08:09:53;;;;;;;5;2.1;;;;;;;32.98;31.55078;942.437;;;;
2019/07/04 08:12:17;;;;;;;10.1;2.4;;;;;;;32.89;32.46973;942.4047;;;;
2019/07/04 08:14:50;;;;;;;18;2.7;;;;;;;33.33;31.40723;942.4009;;;;
2019/07/04 08:17:17;;;;;;;5.3;2.1;;;;;;;32.71;31.35156;942.4026;;;;
2019/07/04 08:19:42;;;;;;;6.4;2.2;;;;;;;33.31;31.14063;942.4233;;;;
2019/07/04 08:22:13;;;;;;;5.7;2.1;;;;;;;33.72;30.4834;942.3742;;;;
2019/07/04 08:24:39;;;;;;;3.7;2.2;;;;;;;33.95;28.53613;942.3289;;;;
2019/07/04 08:27:06;;;;;;;5;2.1;;;;;;;33.09;31.33008;942.3614;;;;
2019/07/04 08:29:41;;;;;;;4.4;2;;;;;;;33.56;30.61621;942.4086;;;;
2019/07/04 08:32:07;;;;;;;6.3;2.2;;;;;;;34.33;28.06738;942.3819;;;;
2019/07/04 08:34:31;;;;;;;6.4;2.3;;;;;;;33.86;29.68652;942.3232;;;;
2019/07/04 08:36:59;;;;;;;3.8;2;;;;;;;33.01;31.44434;942.3484;;;;
2019/07/04 08:39:26;;;;;;;4.6;2;;;;;;;33.72;29.40039;942.4271;;;;
2019/07/04 08:41:55;;;;;;;4.3;2;;;;;;;33.98;29.26074;942.4383;;;;
2019/07/04 08:44:21;;;;;;;5.6;2;;;;;;;33.77;29.46387;942.4227;;;;
2019/07/04 08:46:52;;;;;;;6.7;2.2;;;;;;;33.41;29.44043;942.4531;;;;
2019/07/04 08:49:28;;;;;;;5.7;2.1;;;;;;;33.17;31.39551;942.4294;;;;
2019/07/04 08:52:01;;;;;;;4.8;2;;;;;;;32.33;31.18262;942.4328;;;;
2019/07/04 08:54:24;;;;;;;5.9;2.1;;;;;;;32.27;31.52441;942.4187;;;;
2019/07/04 08:56:47;;;;;;;5.7;2.1;;;;;;;32.57;32.31348;942.4611;;;;
2019/07/04 08:59:11;;;;;;;7.2;2.1;;;;;;;32.93;31.12695;942.5338;;;;
2019/07/04 09:01:43;;;;;;;7.4;2;;;;;;;32.55;30.32031;942.407;;;;
2019/07/04 09:04:26;;;;;;;7.1;2.3;;;;;;;32.3;32.01855;942.404;;;;
2019/07/04 09:06:48;;;;;;;6.3;2.2;;;;;;;31.76;32.5918;942.419;;;;
2019/07/04 09:09:15;;;;;;;5.3;2;;;;;;;31.84;32.88574;942.4309;;;;
2019/07/04 09:11:38;;;;;;;8.1;2.5;;;;;;;31.65;32.15234;942.3411;;;;
2019/07/04 09:14:04;;;;;;;6.8;2;;;;;;;31.16;33.41016;942.4207;;;;
2019/07/04 09:16:35;;;;;;;7.3;2.2;;;;;;;30.99;34.24609;942.361;;;;
2019/07/04 09:19:00;;;;;;;4.8;2.2;;;;;;;30.9;33.21094;942.3727;;;;
2019/07/04 09:21:25;;;;;;;8;2.2;;;;;;;30.51;35.21387;942.3369;;;;
2019/07/04 09:23:58;;;;;;;6.9;2.3;;;;;;;30.36;35.91797;942.3361;;;;
2019/07/04 09:26:22;;;;;;;7.2;2.4;;;;;;;30.28;34.49121;942.3582;;;;
2019/07/04 09:28:50;;;;;;;9.2;2.6;;;;;;;29.91;35.54785;942.3412;;;;
2019/07/04 09:31:16;;;;;;;6.9;2.4;;;;;;;29.5;37.1377;942.3027;;;;
2019/07/04 09:33:49;;;;;;;5.2;2.5;;;;;;;29.26;38.78516;942.3727;;;;
2019/07/04 09:36:20;;;;;;;6.2;2.7;;;;;;;28.76;39.43164;942.3002;;;;
2019/07/04 09:38:51;;;;;;;6.6;2.4;;;;;;;28.7;40.09277;942.3363;;;;
2019/07/04 09:45:01;;;;;;;6.8;2.4;;;;;;;28.22;39.37305;942.3339;;;;
2019/07/04 09:47:25;;;;;;;5.1;2.5;;;;;;;27.86;39.53223;942.307;;;;
2019/07/04 09:49:56;;;;;;;10.3;2.6;;;;;;;27.54;41.81836;942.2742;;;;
2019/07/04 09:52:20;;;;;;;6.8;2.7;;;;;;;27.58;41.5127;942.3376;;;;
2019/07/04 09:54:49;;;;;;;6.9;2.9;;;;;;;27.19;42.2002;942.3024;;;;
2019/07/04 09:57:12;;;;;;;6.6;2.7;;;;;;;27.49;41.11328;942.348;;;;
2019/07/04 09:59:44;;;;;;;5.8;2.6;;;;;;;27.44;41.5127;942.3029;;;;
2019/07/04 10:04:01;;;;;;;11.4;3;;;;;;;27.1;41.89551;942.2421;;;;
2019/07/04 10:06:27;;;;;;;13.2;3.3;;;;;;;27.19;42.48535;942.2802;;;;
2019/07/04 10:08:58;;;;;;;7;2.9;;;;;;;27.36;41.51563;942.2372;;;;
2019/07/04 10:11:32;;;;;;;10.6;3.1;;;;;;;27.48;42.9043;942.2224;;;;
2019/07/04 10:14:03;;;;;;;6.7;2.7;;;;;;;27.26;40.96191;942.1781;;;;
2019/07/04 10:16:29;;;;;;;7.5;3.1;;;;;;;26.96;43.70703;942.2419;;;;
2019/07/04 10:19:00;;;;;;;8.6;2.9;;;;;;;26.97;43.48242;942.1962;;;;
2019/07/04 10:21:35;;;;;;;8.1;3.5;;;;;;;26.95;43.86035;942.1305;;;;
2019/07/04 10:24:04;;;;;;;8.3;3.1;;;;;;;27.01;43.4873;942.1344;;;;
2019/07/04 10:26:31;;;;;;;10.5;3.1;;;;;;;27.27;45.16016;942.1941;;;;
2019/07/04 10:28:57;;;;;;;6.3;2.8;;;;;;;27.45;44.12207;942.1878;;;;
2019/07/04 10:31:30;;;;;;;9.6;2.9;;;;;;;27.31;44.25098;942.1096;;;;
2019/07/04 10:33:57;;;;;;;6.8;2.7;;;;;;;27.17;44.66406;942.1177;;;;
2019/07/04 10:36:23;;;;;;;9.8;3.4;;;;;;;26.94;44.15527;942.0873;;;;
2019/07/04 10:38:50;;;;;;;8.5;3.2;;;;;;;27.02;43.55859;942.0193;;;;
2019/07/04 10:41:18;;;;;;;8.2;3.1;;;;;;;26.85;43.96875;942.0673;;;;
2019/07/04 10:43:47;;;;;;;7.8;2.7;;;;;;;26.82;44.96094;942.0758;;;;
2019/07/04 10:46:08;;;;;;;7.6;2.6;;;;;;;26.89;45.01563;942.0433;;;;
2019/07/04 10:48:34;;;;;;;4.9;3;;;;;;;26.74;46.11426;942.0352;;;;
2019/07/04 10:51:07;;;;;;;6.9;2.6;;;;;;;27.01;45.19434;942.0598;;;;
2019/07/04 10:53:39;;;;;;;11;2.9;;;;;;;27.04;43.59668;942.0645;;;;
2019/07/04 10:56:05;;;;;;;8.8;2.9;;;;;;;27.29;42.88574;941.947;;;;
2019/07/04 10:58:38;;;;;;;7;2.8;;;;;;;27.26;43.83105;942.0041;;;;
2019/07/04 11:01:01;;;;;;;11.9;2.7;;;;;;;26.98;44.30273;941.9244;;;;
2019/07/04 11:03:33;;;;;;;5.8;2.8;;;;;;;27.11;43.66309;941.8878;;;;
2019/07/04 11:06:00;;;;;;;7.7;2.5;;;;;;;26.74;46.48047;941.8926;;;;
2019/07/04 11:08:27;;;;;;;6;2.6;;;;;;;26.93;44.39258;941.9537;;;;
2019/07/04 11:10:58;;;;;;;8;2.6;;;;;;;27.09;43.82715;941.9214;;;;
2019/07/04 11:13:30;;;;;;;9.1;2.7;;;;;;;27.4;43.42871;941.9472;;;;
2019/07/04 11:16:01;;;;;;;5.1;2.8;;;;;;;27.46;42.9248;941.8555;;;;
2019/07/04 11:18:35;;;;;;;5.8;2.7;;;;;;;27.3;43.27832;941.8491;;;;
2019/07/04 11:20:59;;;;;;;8.6;2.6;;;;;;;27.36;43.99512;941.8446;;;;
2019/07/04 11:23:31;;;;;;;10.5;2.9;;;;;;;27.14;44.0332;941.8136;;;;
2019/07/04 11:26:01;;;;;;;5.3;2.2;;;;;;;27.34;42.33301;941.7566;;;;
2019/07/04 11:28:25;;;;;;;7.9;2.6;;;;;;;27.19;44.02637;941.7791;;;;
2019/07/04 11:30:58;;;;;;;4.3;2.6;;;;;;;27.54;44.17871;941.7427;;;;
2019/07/04 11:33:24;;;;;;;4.9;2.5;;;;;;;27.62;41.52832;941.7385;;;;
2019/07/04 11:35:55;;;;;;;8.1;2.6;;;;;;;27.3;44.71289;941.6658;;;;
2019/07/04 11:38:32;;;;;;;5.7;2.6;;;;;;;27.48;42.42969;941.7118;;;;
2019/07/04 11:41:08;;;;;;;4.9;2.5;;;;;;;27.41;42.04297;941.7497;;;;
2019/07/04 11:43:41;;;;;;;6.8;2.6;;;;;;;27.22;43.49512;941.7612;;;;
2019/07/04 11:46:03;;;;;;;5.6;2.4;;;;;;;27.37;43.35547;941.634;;;;
2019/07/04 11:48:36;;;;;;;7.2;2.4;;;;;;;27.02;43.83105;941.5878;;;;
2019/07/04 11:51:03;;;;;;;11.7;2.6;;;;;;;27.31;41.74902;941.5822;;;;
2019/07/04 11:53:45;;;;;;;6.2;2.5;;;;;;;27.33;43.30469;941.517;;;;
2019/07/04 11:56:13;;;;;;;5.5;2.4;;;;;;;27.44;42.63965;941.5921;;;;
2019/07/04 11:58:40;;;;;;;7.3;2.8;;;;;;;27.57;41.12012;941.5363;;;;
2019/07/04 12:01:18;;;;;;;5.9;2.5;;;;;;;27.58;42.04688;941.5561;;;;
2019/07/04 12:03:49;;;;;;;6.5;2.4;;;;;;;27.33;43.32715;941.4659;;;;
2019/07/04 12:06:11;;;;;;;7.3;2.4;;;;;;;27.47;42.1084;941.4263;;;;
2019/07/04 12:08:44;;;;;;;5.5;2.4;;;;;;;27.49;41.71875;941.4266;;;;
2019/07/04 12:11:15;;;;;;;6.2;2.3;;;;;;;27.55;40.41797;941.3697;;;;
2019/07/04 12:13:43;;;;;;;6.2;2.7;;;;;;;27.49;40.66211;941.2917;;;;
2019/07/04 12:16:09;;;;;;;18.7;3;;;;;;;27.44;43.29102;941.3787;;;;
2019/07/04 12:18:40;;;;;;;6.5;2.6;;;;;;;27.4;41.15137;941.2798;;;;
2019/07/04 12:21:05;;;;;;;6.2;2.5;;;;;;;27.52;42.66992;941.2659;;;;
2019/07/04 12:23:31;;;;;;;5.3;2.6;;;;;;;27.53;44.25;941.3198;;;;
2019/07/04 12:25:58;;;;;;;7.7;2.4;;;;;;;27.44;41.61914;941.2034;;;;
2019/07/04 12:28:23;;;;;;;7.7;2.4;;;;;;;27.32;41.73828;941.1962;;;;
2019/07/04 12:30:52;;;;;;;6.1;2.5;;;;;;;27.37;40.50879;941.214;;;;
2019/07/04 12:33:27;;;;;;;7.2;2.4;;;;;;;27.48;40.69727;941.289;;;;
2019/07/04 12:36:01;;;;;;;7.7;2.9;;;;;;;27.61;40.8623;941.2291;;;;
2019/07/04 12:38:36;;;;;;;6.9;2.5;;;;;;;27.53;39.9541;941.215;;;;
2019/07/04 12:41:09;;;;;;;6.4;2.5;;;;;;;27.63;40.19922;941.1785;;;;
2019/07/04 12:43:30;;;;;;;9;2.7;;;;;;;27.77;40.07031;941.1124;;;;
2019/07/04 12:45:59;;;;;;;6.3;2.5;;;;;;;27.61;40.32813;941.1767;;;;
2019/07/04 12:48:22;;;;;;;5.1;2.4;;;;;;;27.68;42.4707;941.1755;;;;
2019/07/04 12:50:48;;;;;;;6.6;2.5;;;;;;;27.68;41.11816;941.1572;;;;
2019/07/04 12:53:18;;;;;;;6.3;2.5;;;;;;;27.57;42.5332;941.1356;;;;
2019/07/04 12:55:44;;;;;;;5.6;2.4;;;;;;;27.67;41.31836;941.1859;;;;
2019/07/04 12:58:08;;;;;;;6.1;2.4;;;;;;;27.62;41.87207;941.2148;;;;
2019/07/04 13:00:36;;;;;;;5.3;2.4;;;;;;;27.33;40.19629;941.1074;;;;
2019/07/04 13:03:00;;;;;;;5.4;2.5;;;;;;;27.49;41.62207;941.1791;;;;
2019/07/04 13:05:37;;;;;;;7.8;2.9;;;;;;;27.49;40.58984;941.166;;;;
2019/07/04 13:08:04;;;;;;;9;2.5;;;;;;;27.4;42.62207;941.1319;;;;
2019/07/04 13:10:31;;;;;;;10.8;3.1;;;;;;;27.3;44.99805;941.1816;;;;
2019/07/04 13:12:56;;;;;;;5.4;2.6;;;;;;;27.31;41.25;941.1202;;;;
2019/07/04 13:15:39;;;;;;;7;2.8;;;;;;;27.36;42.76172;941.0684;;;;
2019/07/04 13:18:15;;;;;;;7.2;2.5;;;;;;;27.3;42.39941;941.052;;;;
2019/07/04 13:20:37;;;;;;;6.1;2.6;;;;;;;27.3;43.06348;941.0691;;;;
2019/07/04 13:23:03;;;;;;;10.4;2.9;;;;;;;27.16;44.22461;940.9727;;;;
2019/07/04 13:25:36;;;;;;;8.1;2.7;;;;;;;27.12;42.53613;941.01;;;;
2019/07/04 13:28:04;;;;;;;6.8;2.7;;;;;;;27.02;43.90234;941.0083;;;;
2019/07/04 13:30:30;;;;;;;7.6;2.9;;;;;;;27.23;43.53223;940.9226;;;;
2019/07/04 13:33:02;;;;;;;9.3;2.7;;;;;;;27.19;43.44531;940.9116;;;;
2019/07/04 13:35:34;;;;;;;9.4;2.6;;;;;;;27.16;41.83008;940.9465;;;;
2019/07/04 13:37:59;;;;;;;7.2;2.5;;;;;;;27.3;41.13086;940.8806;;;;
2019/07/04 13:40:26;;;;;;;9.6;2.7;;;;;;;27.25;43.90234;940.9233;;;;
2019/07/04 13:43:05;;;;;;;7.8;2.6;;;;;;;27.18;43.44336;940.8656;;;;
2019/07/04 13:45:28;;;;;;;9.1;2.7;;;;;;;27.1;42.87891;940.8345;;;;
2019/07/04 13:48:00;;;;;;;7;2.6;;;;;;;27.11;44.61133;940.8412;;;;
2019/07/04 13:50:31;;;;;;;6.3;2.4;;;;;;;27.1;41.98926;940.8214;;;;
2019/07/04 13:52:52;;;;;;;8;2.5;;;;;;;27.09;43.38867;940.8055;;;;
2019/07/04 13:55:27;;;;;;;4.5;2.5;;;;;;;26.93;43.43066;940.7255;;;;
2019/07/04 13:57:52;;;;;;;4.6;2.5;;;;;;;26.68;44.70996;940.7857;;;;
2019/07/04 14:00:21;;;;;;;7.6;2.5;;;;;;;26.72;44.50098;940.7405;;;;
2019/07/04 14:02:44;;;;;;;8.1;2.5;;;;;;;26.53;43.07324;940.7739;;;;
2019/07/04 14:05:10;;;;;;;7.3;2.4;;;;;;;26.74;43.87598;940.7369;;;;
2019/07/04 14:07:43;;;;;;;7.9;2.4;;;;;;;26.71;42.9248;940.6633;;;;
2019/07/04 14:10:13;;;;;;;7.2;2.7;;;;;;;26.63;45.43945;940.7192;;;;
2019/07/04 14:12:38;;;;;;;9;2.8;;;;;;;26.77;44.81543;940.6969;;;;
2019/07/04 14:15:08;;;;;;;8.8;2.7;;;;;;;26.95;44.86719;940.6526;;;;
2019/07/04 14:17:35;;;;;;;6.6;2.3;;;;;;;27;42.88086;940.7582;;;;
2019/07/04 14:20:01;;;;;;;6.7;2.5;;;;;;;26.96;41.65723;940.7064;;;;
2019/07/04 14:22:31;;;;;;;7.6;2.4;;;;;;;26.83;43.0791;940.6222;;;;
2019/07/04 14:39:46;;;;;;;11.9;2.6;;;;;;;26.61;41.95605;940.6575;;;;
2019/07/04 14:47:14;;;;;;;5.9;2.3;;;;;;;26.24;42.67969;940.5831;;;;
2019/07/04 14:49:38;;;;;;;7;2.5;;;;;;;26.17;42.84961;940.5452;;;;
2019/07/04 14:52:21;;;;;;;6.5;2.5;;;;;;;25.98;43.46973;940.5923;;;;
2019/07/04 14:54:43;;;;;;;8.8;2.6;;;;;;;25.99;43.28223;940.4816;;;;
2019/07/04 14:57:07;;;;;;;7.3;2.4;;;;;;;26.09;44.21387;940.4836;;;;
2019/07/04 14:59:37;;;;;;;4.9;2.5;;;;;;;26.26;43.04785;940.462;;;;
2019/07/04 15:02:02;;;;;;;6;2.4;;;;;;;26.47;43.81348;940.4959;;;;
2019/07/04 15:04:30;;;;;;;10.4;2.4;;;;;;;26.59;42.71094;940.3906;;;;
2019/07/04 15:06:52;;;;;;;6.4;2.4;;;;;;;26.8;42.63672;940.3965;;;;
2019/07/04 15:09:24;;;;;;;7.4;2.5;;;;;;;26.85;41.68262;940.3282;;;;